Weather

The location could not be found.

 

 

For a detailed forecast click the banner below.

ballooncastlogo

 

 

Available data for KABQ from the past 2 hours
ALBUQUERQUE, NM
Metar
KABQ 140752Z 13004KT 10SM CLR 13/M01 A3007 RMK AO2 SLP123 T01281006

07:52 UTC

Wind: 130° 4kt

Visibility: 10 SM

Sky:

Temp: 13 deg C / 55.4 deg F

Dewpoint: -1 deg C / 30.2 deg F

Pressure: 30.07 inHg

TAF
KABQ 140520Z 1406/1506 13004KT P6SM SKC FM141800 25006KT P6SM SKC FM142200 28008KT P6SM SCT100 FM150100 33005KT P6SM SKC